Apache Junction, Arizona
Current Conditions -  °F | °C
As of 8:47 AM on Thursday 23 Oct 2014 (Local Time) from KIWA Reporting Station
Few Clouds Few Clouds  
Wind Chill: 22°   Ceiling: Unl
Heat Index: 22°   Visibility: 45mi
Dew Point: 11°   Wind: 3mph
Humidity: 50%   Direction: 180°S
Pressure: 30.07"   Gusts: NA
Location:  33.42°N, 111.54°W
Report Text: KIWA 231547Z 18003KT 45SM FEW100 22/11 A3007
Loading
Personal Weather Stations






























Interactive Weather Map New forecast layout! Learn more

10-Day Weather Forecast

Advertisements
Track Severe Weather on mobile